Whitney, TX (76692)

3:22 AM CDT on July 13, 2014 (GMT -0500)
Oak Ridge Loop (KTXWHITN3) Elev 734 ft | 32.00 °N, 97.32 °W | Change Station

Current weather conditions updated 2 seconds ago

Clear
Clear
77.1 °F
Feels Like 79 °F
N
0.0
Wind Variable Wind from SSE
Gusts 4.0 mph

Today is forecast to be Warmer than yesterday.

Today
High -- | Low -- °F
--% Chance of Precip.
Yesterday
High -- | Low -- °F
Precip. -- in
6:32 AM 8:37 PM
Full, 99% visible
Pressure 30.09 in
Visibility 10.0 miles
Clouds Clear
Heat Index 79 °F
Dew Point 68 °F
Humidity 73%
Rainfall 0.00 in
Snow Depth Not available.
UV 0 out of 12
Pollen 4.40 out of 12
Ozone Good
PM2.5 Moderate
Flu Activity Sporadic
METAR KINJ 130815Z AUTO 16003KT 10SM CLR 25/18 A3009 RMK AO2 T02480184

More Conditions Fewer Conditions

Pressure 30.09 in
Visibility 10.0 miles
Clouds Clear
Heat Index 79 °F
Dew Point 68 °F
Humidity 73%
Rainfall 0.00 in
Snow Depth Not available.
UV 0 out of 12
Pollen 4.40 out of 12
Ozone Good
PM2.5 Moderate
Flu Activity Sporadic
METAR KINJ 130815Z AUTO 16003KT 10SM CLR 25/18 A3009 RMK AO2 T02480184

More Conditions Fewer Conditions

10-Day Weather Forecast

Almanac

Astronomy

Jul. 13, 2014 Rise Set
Actual Time 6:32 AM CDT 8:37 PM CDT
Civil Twilight 6:05 AM CDT 9:04 PM CDT
Nautical Twilight 5:31 AM CDT 9:38 PM CDT
Astronomical Twilight 4:55 AM CDT 10:14 PM CDT
Moon 9:36 PM CDT 7:56 AM CDT
Length of Visible Light 14h 59m
Length of Day
14h 04m
Tomorrow will be 0m 55s shorter.
Full, 99% of the Moon is Illuminated
Today
Full
Jul 18
Last Quarter
Jul 26
New
Aug 3
First Quarter
Aug 10
Full

Today's Extremes

State Highs State Lows

Community

WunderPhotos

Upload Photos

1,733,143 photos uploaded!

Nearby

Air Quality

  Air Quality AQ Index Pollutant
Yesterday Moderate
PM2.5
Yesterday Good
OZONE
Current Moderate
PM2.5
Current Good
OZONE
Sunday Good
PM10
Sunday Good
OZONE
Monday Good
PM10
Monday Good
OZONE
Tuesday Good
OZONE
Tuesday Good
PM10

Snow Depth

Station Depth Elevation
No new snow has been reported.

Earthquake Activity

City Distance Mag. Time & Date
No recent earthquake activity has been reported nearby.
Minimum magnitude displayed is 2.5.

Coastal Water Temperatures

Place Temperature
No Stations Reporting

Nearby Weather Stations

Station Location Temp. Heat Index Dew Point Humidity Wind Precip. Elev Updated Type
Oak Ridge Loop, Whitney, TX 77.1 °F 79 °F 68 °F 73% SSE  at  0.0 mph 0.00 in / hr 734 ft 3:22 AM CDT Rapid Fire
MesoWest WEST , Abbott, TX 77 °F 75 °F - - North  at  - 0.00 in / hr 645 ft 12:15 AM CDT MADIS
West, TX 76.5 °F 78 °F 68 °F 76% South  at  0.0 mph 0.00 in / hr 587 ft 3:22 AM CDT Rapid Fire
DD Stables, Valley Mills, TX 73.0 °F 72 °F 68 °F 85% SSW  at  0.0 mph - / hr 732 ft 3:18 AM CDT Normal
Harris 424 Ranch, Walnut Springs, TX 76.0 °F 78 °F 66 °F 71% SSE  at  4.0 mph 0.00 in / hr 810 ft 3:22 AM CDT Normal

Show More Stations Show Fewer Stations